createdAt,value
2018-06-04T00:01:51.831Z,15.06
2018-06-04T00:04:26.268Z,15.11
2018-06-04T00:06:58.869Z,15.06
2018-06-04T00:09:31.962Z,15.03
2018-06-04T00:12:04.641Z,14.97
2018-06-04T00:14:37.013Z,14.91
2018-06-04T00:17:09.959Z,14.85
2018-06-04T00:19:43.294Z,14.80
2018-06-04T00:22:15.981Z,14.73
2018-06-04T00:24:49.548Z,14.84
2018-06-04T00:27:22.088Z,14.76
2018-06-04T00:29:54.738Z,14.74
2018-06-04T00:32:28.424Z,14.80
2018-06-04T00:35:00.993Z,14.99
2018-06-04T00:37:34.333Z,15.04
2018-06-04T00:40:07.116Z,15.05
2018-06-04T00:42:40.169Z,14.92
2018-06-04T00:45:14.336Z,14.79
2018-06-04T00:47:47.990Z,14.69
2018-06-04T00:50:20.704Z,14.61
2018-06-04T00:52:53.109Z,14.62
2018-06-04T00:55:25.856Z,14.81
2018-06-04T00:57:58.292Z,14.97
2018-06-04T01:00:30.805Z,14.93
2018-06-04T01:03:03.660Z,14.91
2018-06-04T01:05:36.173Z,14.84
2018-06-04T01:08:08.635Z,14.67
2018-06-04T01:10:42.275Z,14.75
2018-06-04T01:13:14.983Z,14.71
2018-06-04T01:15:47.724Z,14.64
2018-06-04T01:18:20.565Z,14.62
2018-06-04T01:20:53.080Z,14.54
2018-06-04T01:23:25.552Z,14.46
2018-06-04T01:25:58.797Z,14.42
2018-06-04T01:28:31.224Z,14.49
2018-06-04T01:31:03.891Z,14.49
2018-06-04T01:36:08.836Z,14.67
2018-06-04T01:38:41.572Z,14.66
2018-06-04T01:41:14.505Z,14.68
2018-06-04T01:43:47.633Z,14.76
2018-06-04T01:46:20.101Z,14.82
2018-06-04T01:48:52.830Z,14.94
2018-06-04T01:51:25.489Z,14.85
2018-06-04T01:53:58.033Z,14.78
2018-06-04T01:56:30.776Z,14.77
2018-06-04T01:59:03.201Z,14.80
2018-06-04T02:01:35.803Z,14.77
2018-06-04T02:04:08.553Z,14.77
2018-06-04T02:06:41.837Z,14.73
2018-06-04T02:09:14.536Z,14.63
2018-06-04T02:11:48.033Z,14.53
2018-06-04T02:14:20.520Z,14.45
2018-06-04T02:16:53.387Z,14.41
2018-06-04T02:19:26.321Z,14.36
2018-06-04T02:21:59.430Z,14.47
2018-06-04T02:24:31.820Z,14.37
2018-06-04T02:27:04.677Z,14.25
2018-06-04T02:29:37.239Z,14.19
2018-06-04T02:32:09.781Z,14.21
2018-06-04T02:34:43.286Z,14.24
2018-06-04T02:37:15.998Z,14.30
2018-06-04T02:39:48.784Z,14.35
2018-06-04T02:42:21.783Z,14.42
2018-06-04T02:44:54.233Z,14.51
2018-06-04T02:47:26.713Z,14.44
2018-06-04T02:49:59.508Z,14.43
2018-06-04T02:52:32.039Z,14.35
2018-06-04T02:55:04.456Z,14.23
2018-06-04T02:57:37.169Z,14.20
2018-06-04T03:00:09.897Z,14.27
2018-06-04T03:02:44.664Z,14.48
2018-06-04T03:05:17.865Z,14.44
2018-06-04T03:07:50.705Z,14.51
2018-06-04T03:10:23.338Z,14.45
2018-06-04T03:12:56.399Z,14.49
2018-06-04T03:15:28.840Z,14.59
2018-06-04T03:18:01.382Z,14.59
2018-06-04T03:20:34.238Z,14.49
2018-06-04T03:23:07.103Z,14.38
2018-06-04T03:25:39.690Z,14.30
2018-06-04T03:28:12.752Z,14.36
2018-06-04T03:30:45.502Z,14.34
2018-06-04T03:33:18.113Z,14.32
2018-06-04T03:35:51.105Z,14.34
2018-06-04T03:38:24.036Z,14.45
2018-06-04T03:40:56.621Z,14.45
2018-06-04T03:43:29.443Z,14.41
2018-06-04T03:46:02.049Z,14.49
2018-06-04T03:48:34.570Z,14.44
2018-06-04T03:51:07.459Z,14.44
2018-06-04T03:53:40.244Z,14.47
2018-06-04T03:56:12.705Z,14.61
2018-06-04T03:58:45.993Z,14.63
2018-06-04T04:01:18.813Z,14.66
2018-06-04T04:03:52.277Z,14.71
2018-06-04T04:06:25.066Z,14.78
2018-06-04T04:08:57.453Z,14.84
2018-06-04T04:11:30.351Z,14.90
2018-06-04T04:14:03.388Z,14.95
2018-06-04T04:16:38.349Z,15.02
2018-06-04T04:19:10.867Z,15.06
2018-06-04T04:21:44.743Z,15.19
2018-06-04T04:24:17.960Z,15.39
2018-06-04T04:26:51.746Z,15.44
2018-06-04T04:29:24.368Z,15.50
2018-06-04T04:31:57.073Z,15.57
2018-06-04T04:34:29.625Z,15.63
2018-06-04T04:37:03.109Z,15.73
2018-06-04T04:39:36.005Z,15.79
2018-06-04T04:42:08.579Z,15.93
2018-06-04T04:44:40.924Z,15.98
2018-06-04T04:47:14.033Z,16.01
2018-06-04T04:49:46.976Z,16.03
2018-06-04T04:52:19.729Z,16.08
2018-06-04T04:54:53.313Z,16.18
2018-06-04T04:57:25.897Z,16.26
2018-06-04T04:59:58.877Z,16.36
2018-06-04T05:02:31.631Z,16.45
2018-06-04T05:05:04.142Z,16.54
2018-06-04T05:07:39.006Z,16.62
2018-06-04T05:10:11.939Z,16.72
2018-06-04T05:12:44.624Z,16.83
2018-06-04T05:15:16.687Z,16.94
2018-06-04T05:17:50.870Z,17.07
2018-06-04T05:20:25.184Z,17.18
2018-06-04T05:23:01.429Z,17.27
2018-06-04T05:25:34.683Z,17.36
2018-06-04T05:28:08.740Z,17.44
2018-06-04T05:30:41.370Z,17.53
2018-06-04T05:35:48.797Z,17.73
2018-06-04T05:38:21.441Z,17.78
2018-06-04T05:40:54.598Z,17.84
2018-06-04T05:43:27.405Z,17.99
2018-06-04T05:46:10.701Z,18.04
2018-06-04T05:48:43.241Z,18.07
2018-06-04T05:51:16.041Z,18.11
2018-06-04T05:53:49.110Z,18.20
2018-06-04T05:56:21.604Z,18.31
2018-06-04T05:58:54.554Z,18.42
2018-06-04T06:01:27.018Z,18.60
2018-06-04T06:04:03.745Z,18.77
2018-06-04T06:06:36.892Z,18.89
2018-06-04T06:09:10.779Z,19.00
2018-06-04T06:11:43.560Z,19.12
2018-06-04T06:14:16.437Z,19.23
2018-06-04T06:16:48.843Z,19.40
2018-06-04T06:19:21.575Z,19.58
2018-06-04T06:21:55.258Z,19.69
2018-06-04T06:24:28.704Z,19.79
2018-06-04T06:27:01.149Z,19.88
2018-06-04T06:29:34.140Z,19.96
2018-06-04T06:32:06.764Z,20.07
2018-06-04T06:34:39.369Z,20.19
2018-06-04T06:37:12.280Z,20.35
2018-06-04T06:39:44.817Z,20.59
2018-06-04T06:42:17.174Z,20.80
2018-06-04T06:44:50.338Z,20.94
2018-06-04T06:47:22.969Z,21.04
2018-06-04T06:49:56.542Z,21.14
2018-06-04T06:52:29.326Z,21.19
2018-06-04T06:55:02.311Z,21.22
2018-06-04T06:57:34.700Z,21.28
2018-06-04T07:00:07.621Z,21.46
2018-06-04T07:02:40.054Z,21.57
2018-06-04T07:05:12.472Z,21.60
2018-06-04T07:07:44.800Z,21.66
2018-06-04T07:10:18.446Z,21.69
2018-06-04T07:12:51.594Z,21.67
2018-06-04T07:15:24.426Z,21.71
2018-06-04T07:17:58.073Z,21.78
2018-06-04T07:20:31.150Z,21.91
2018-06-04T07:23:03.749Z,21.98
2018-06-04T07:25:36.667Z,22.08
2018-06-04T07:28:09.528Z,22.21
2018-06-04T07:30:43.788Z,22.33
2018-06-04T07:33:18.211Z,22.43
2018-06-04T07:35:50.916Z,22.49
2018-06-04T07:38:23.967Z,22.56
2018-06-04T07:40:57.669Z,22.71
2018-06-04T07:43:30.376Z,22.86
2018-06-04T07:46:03.479Z,23.04
2018-06-04T07:48:36.253Z,23.52
2018-06-04T07:51:08.786Z,24.07
2018-06-04T07:53:41.196Z,24.83
2018-06-04T07:56:14.159Z,25.58
2018-06-04T07:58:46.564Z,26.32
2018-06-04T08:01:18.881Z,26.74
2018-06-04T08:03:51.758Z,27.05
2018-06-04T08:06:25.274Z,27.71
2018-06-04T08:08:58.099Z,27.94
2018-06-04T08:11:30.671Z,27.92
2018-06-04T08:14:03.980Z,27.68
2018-06-04T08:16:36.856Z,27.59
2018-06-04T08:19:10.554Z,27.89
2018-06-04T08:21:43.222Z,27.72
2018-06-04T08:24:16.300Z,27.64
2018-06-04T08:26:50.029Z,27.63
2018-06-04T08:29:22.782Z,27.41
2018-06-04T08:31:55.479Z,27.58
2018-06-04T08:34:28.194Z,27.59
2018-06-04T08:37:00.875Z,27.53
2018-06-04T08:39:33.590Z,27.83
2018-06-04T08:42:06.884Z,27.88
2018-06-04T08:44:40.845Z,27.88
2018-06-04T08:47:14.742Z,28.01
2018-06-04T08:49:47.689Z,28.18
2018-06-04T08:52:20.300Z,28.41
2018-06-04T08:54:52.633Z,28.88
2018-06-04T08:57:25.477Z,28.42
2018-06-04T08:59:58.010Z,27.90
2018-06-04T09:02:30.578Z,27.44
2018-06-04T09:05:03.453Z,27.45
2018-06-04T09:07:35.983Z,27.46
2018-06-04T09:10:09.079Z,27.62
2018-06-04T09:12:43.273Z,27.83
2018-06-04T09:15:19.194Z,28.01
2018-06-04T09:17:52.588Z,28.11
2018-06-04T09:20:25.640Z,28.26
2018-06-04T09:22:58.553Z,28.07
2018-06-04T09:25:31.273Z,27.93
2018-06-04T09:28:04.404Z,28.01
2018-06-04T09:30:37.006Z,28.14
2018-06-04T09:33:10.417Z,28.30
2018-06-04T09:35:44.539Z,28.21
2018-06-04T09:38:17.841Z,28.05
2018-06-04T09:40:50.568Z,28.09
2018-06-04T09:43:23.411Z,28.06
2018-06-04T09:45:55.854Z,28.25
2018-06-04T09:48:28.401Z,28.76
2018-06-04T09:51:01.183Z,28.70
2018-06-04T09:53:34.780Z,28.27
2018-06-04T09:56:12.832Z,28.14
2018-06-04T09:58:46.745Z,28.29
2018-06-04T10:01:21.041Z,28.42
2018-06-04T10:03:54.225Z,28.63
2018-06-04T10:06:26.618Z,28.68
2018-06-04T10:08:59.143Z,28.69
2018-06-04T10:11:32.215Z,28.44
2018-06-04T10:14:05.289Z,28.65
2018-06-04T10:16:37.956Z,28.94
2018-06-04T10:19:13.570Z,29.38
2018-06-04T10:21:47.620Z,29.57
2018-06-04T10:24:20.765Z,29.64
2018-06-04T10:26:55.122Z,29.74
2018-06-04T10:29:29.143Z,29.64
2018-06-04T10:32:02.815Z,29.18
2018-06-04T10:34:35.844Z,29.18
2018-06-04T10:37:12.413Z,29.24
2018-06-04T10:39:45.493Z,29.36
2018-06-04T10:42:20.702Z,29.51
2018-06-04T10:44:53.267Z,29.25
2018-06-04T10:47:25.656Z,29.57
2018-06-04T10:49:58.407Z,29.60
2018-06-04T10:52:31.279Z,29.73
2018-06-04T10:55:04.395Z,29.69
2018-06-04T10:57:37.403Z,29.35
2018-06-04T11:00:10.637Z,29.57
2018-06-04T11:02:47.869Z,30.03
2018-06-04T11:05:21.895Z,30.69
2018-06-04T11:07:54.431Z,31.23
2018-06-04T11:10:27.039Z,31.07
2018-06-04T11:13:00.831Z,30.75
2018-06-04T11:15:33.500Z,31.04
2018-06-04T11:18:06.002Z,30.99
2018-06-04T11:20:38.581Z,31.02
2018-06-04T11:23:11.282Z,30.76
2018-06-04T11:25:43.850Z,30.57
2018-06-04T11:28:17.014Z,30.36
2018-06-04T11:30:49.680Z,30.19
2018-06-04T11:33:22.074Z,30.24
2018-06-04T11:35:55.661Z,30.57
2018-06-04T11:38:32.807Z,30.43
2018-06-04T11:41:07.754Z,30.09
2018-06-04T11:43:41.295Z,30.19
2018-06-04T11:46:17.028Z,30.61
2018-06-04T11:48:50.621Z,31.08
2018-06-04T11:51:25.898Z,31.01
2018-06-04T11:53:59.791Z,30.86
2018-06-04T11:56:38.250Z,30.68
2018-06-04T11:59:12.405Z,30.44
2018-06-04T12:01:46.517Z,30.54
2018-06-04T12:04:20.201Z,30.57
2018-06-04T12:06:59.757Z,30.62
2018-06-04T12:09:35.480Z,30.80
2018-06-04T12:12:10.016Z,30.83
2018-06-04T12:14:45.648Z,30.48
2018-06-04T12:17:19.637Z,29.91
2018-06-04T12:19:53.494Z,29.62
2018-06-04T12:22:25.920Z,29.73
2018-06-04T12:24:58.936Z,29.80
2018-06-04T12:27:37.709Z,29.77
2018-06-04T12:30:13.796Z,29.84
2018-06-04T12:32:50.348Z,30.12
2018-06-04T12:35:24.753Z,30.24
2018-06-04T12:37:58.994Z,30.36
2018-06-04T12:40:34.037Z,30.74
2018-06-04T12:43:08.703Z,31.11
2018-06-04T12:45:46.132Z,31.47
2018-06-04T12:48:18.934Z,31.63
2018-06-04T12:50:51.804Z,31.57
2018-06-04T12:53:24.950Z,31.67
2018-06-04T12:55:58.769Z,31.38
2018-06-04T12:58:38.582Z,30.89
2018-06-04T13:01:12.983Z,30.82
2018-06-04T13:03:46.773Z,30.95
2018-06-04T13:06:20.431Z,31.15
2018-06-04T13:08:56.780Z,31.26
2018-06-04T13:11:31.676Z,31.20
2018-06-04T13:14:08.429Z,30.80
2018-06-04T13:16:46.676Z,30.39
2018-06-04T13:19:21.560Z,30.48
2018-06-04T13:21:55.948Z,30.67
2018-06-04T13:24:29.524Z,30.68
2018-06-04T13:27:04.646Z,30.91
2018-06-04T13:29:38.794Z,31.32
2018-06-04T13:32:13.893Z,31.71
2018-06-04T13:34:48.501Z,31.87
2018-06-04T13:37:21.766Z,31.74
2018-06-04T13:39:55.762Z,31.57
2018-06-04T13:42:31.214Z,31.63
2018-06-04T13:45:09.555Z,31.50
2018-06-04T13:47:45.193Z,31.06
2018-06-04T13:50:18.276Z,30.99
2018-06-04T13:52:51.119Z,30.96
2018-06-04T13:55:25.392Z,31.31
2018-06-04T13:58:01.093Z,31.49
2018-06-04T14:00:52.936Z,31.68
2018-06-04T14:03:30.205Z,31.95
2018-06-04T14:06:04.504Z,32.23
2018-06-04T14:08:44.677Z,32.50
2018-06-04T14:11:17.294Z,32.52
2018-06-04T14:13:49.793Z,32.45
2018-06-04T14:16:24.031Z,31.99
2018-06-04T14:18:57.703Z,31.70
2018-06-04T14:21:35.928Z,31.53
2018-06-04T14:24:09.279Z,31.63
2018-06-04T14:26:41.753Z,31.52
2018-06-04T14:29:15.407Z,31.43
2018-06-04T14:31:49.793Z,31.63
2018-06-04T14:34:24.003Z,31.78
2018-06-04T14:37:03.070Z,31.52
2018-06-04T14:39:38.762Z,31.58
2018-06-04T14:42:17.024Z,31.46
2018-06-04T14:44:51.406Z,31.23
2018-06-04T14:47:23.968Z,31.13
2018-06-04T14:50:05.223Z,31.05
2018-06-04T14:52:42.677Z,31.03
2018-06-04T14:55:15.335Z,31.11
2018-06-04T14:57:51.228Z,31.10
2018-06-04T15:00:26.897Z,31.16
2018-06-04T15:03:04.012Z,31.20
2018-06-04T15:05:39.359Z,31.28
2018-06-04T15:08:14.870Z,31.26
2018-06-04T15:10:47.582Z,30.80
2018-06-04T15:13:21.537Z,30.65
2018-06-04T15:15:55.043Z,30.29
2018-06-04T15:18:30.866Z,29.82
2018-06-04T15:21:04.609Z,29.38
2018-06-04T15:23:38.807Z,29.40
2018-06-04T15:26:13.594Z,29.83
2018-06-04T15:28:48.403Z,30.06
2018-06-04T15:31:32.529Z,29.60
2018-06-04T15:34:09.368Z,29.10
2018-06-04T15:36:42.816Z,28.86
2018-06-04T15:39:19.643Z,28.63
2018-06-04T15:41:53.651Z,28.49
2018-06-04T15:44:27.580Z,28.72
2018-06-04T15:47:11.516Z,28.69
2018-06-04T15:49:50.500Z,28.66
2018-06-04T15:52:24.109Z,28.26
2018-06-04T15:55:02.923Z,27.91
2018-06-04T15:57:37.057Z,27.86
2018-06-04T16:00:14.945Z,28.03
2018-06-04T16:02:47.548Z,28.21
2018-06-04T16:05:21.696Z,28.27
2018-06-04T16:07:57.448Z,28.24
2018-06-04T16:10:34.412Z,28.25
2018-06-04T16:13:08.038Z,28.33
2018-06-04T16:15:41.538Z,28.46
2018-06-04T16:18:19.480Z,28.38
2018-06-04T16:21:05.701Z,28.33
2018-06-04T16:23:40.656Z,27.88
2018-06-04T16:26:16.550Z,27.71
2018-06-04T16:28:50.627Z,27.64
2018-06-04T16:31:24.567Z,27.48
2018-06-04T16:34:01.077Z,27.43
2018-06-04T16:36:35.848Z,27.71
2018-06-04T16:39:12.273Z,27.94
2018-06-04T16:41:46.894Z,28.12
2018-06-04T16:44:21.952Z,28.15
2018-06-04T16:47:03.211Z,28.02
2018-06-04T16:49:37.924Z,27.83
2018-06-04T16:52:15.707Z,27.70
2018-06-04T16:54:54.397Z,27.70
2018-06-04T16:57:35.715Z,27.76
2018-06-04T17:00:09.789Z,27.62
2018-06-04T17:02:45.636Z,27.47
2018-06-04T17:05:19.039Z,27.40
2018-06-04T17:07:52.249Z,27.30
2018-06-04T17:10:27.989Z,27.34
2018-06-04T17:13:05.289Z,27.31
2018-06-04T17:15:38.216Z,27.08
2018-06-04T17:18:14.575Z,26.92
2018-06-04T17:20:49.498Z,26.82
2018-06-04T17:23:22.628Z,26.76
2018-06-04T17:25:59.502Z,26.58
2018-06-04T17:28:34.279Z,26.51
2018-06-04T17:31:11.429Z,26.37
2018-06-04T17:33:47.731Z,26.24
2018-06-04T17:36:24.744Z,26.03
2018-06-04T17:38:59.562Z,25.93
2018-06-04T17:41:35.178Z,25.86
2018-06-04T17:44:08.478Z,25.81
2018-06-04T17:46:42.223Z,25.78
2018-06-04T17:49:15.980Z,25.80
2018-06-04T17:51:49.198Z,25.75
2018-06-04T17:54:23.915Z,25.75
2018-06-04T17:56:57.158Z,25.70
2018-06-04T17:59:32.349Z,25.71
2018-06-04T18:02:06.943Z,25.61
2018-06-04T18:04:42.853Z,25.52
2018-06-04T18:07:23.681Z,25.39
2018-06-04T18:10:06.156Z,25.21
2018-06-04T18:12:40.774Z,25.07
2018-06-04T18:15:17.051Z,24.91
2018-06-04T18:17:50.652Z,24.68
2018-06-04T18:20:26.357Z,24.51
2018-06-04T18:23:01.638Z,24.38
2018-06-04T18:25:38.135Z,24.27
2018-06-04T18:28:16.497Z,24.11
2018-06-04T18:30:51.553Z,23.99
2018-06-04T18:33:27.124Z,23.92
2018-06-04T18:36:02.653Z,23.83
2018-06-04T18:38:36.489Z,23.79
2018-06-04T18:41:13.981Z,23.70
2018-06-04T18:43:50.805Z,23.63
2018-06-04T18:46:29.922Z,23.54
2018-06-04T18:49:04.580Z,23.44
2018-06-04T18:51:38.711Z,23.32
2018-06-04T18:54:16.008Z,23.22
2018-06-04T18:56:51.930Z,23.18
2018-06-04T18:59:29.603Z,23.09
2018-06-04T19:02:06.410Z,22.96
2018-06-04T19:04:39.538Z,22.87
2018-06-04T19:07:14.410Z,22.79
2018-06-04T19:09:57.911Z,22.70
2018-06-04T19:12:34.385Z,22.54
2018-06-04T19:15:20.360Z,22.44
2018-06-04T19:17:57.604Z,22.35
2018-06-04T19:20:35.245Z,22.30
2018-06-04T19:23:11.919Z,22.24
2018-06-04T19:25:48.297Z,22.06
2018-06-04T19:28:25.200Z,21.96
2018-06-04T19:31:02.021Z,21.85
2018-06-04T19:33:37.132Z,21.69
2018-06-04T19:36:12.297Z,21.57
2018-06-04T19:38:45.419Z,21.45
2018-06-04T19:41:18.012Z,21.34
2018-06-04T19:44:19.651Z,21.28
2018-06-04T19:46:54.671Z,21.14
2018-06-04T19:49:31.323Z,21.10
2018-06-04T19:52:07.232Z,20.95
2018-06-04T19:54:42.847Z,20.90
2018-06-04T19:57:17.787Z,20.73
2018-06-04T19:59:55.274Z,20.59
2018-06-04T20:02:32.189Z,20.45
2018-06-04T20:05:07.070Z,20.33
2018-06-04T20:07:43.042Z,20.29
2018-06-04T20:10:24.934Z,20.12
2018-06-04T20:13:00.401Z,19.99
2018-06-04T20:15:36.060Z,19.90
2018-06-04T20:18:13.728Z,19.82
2018-06-04T20:20:47.773Z,19.83
2018-06-04T20:23:23.440Z,19.87
2018-06-04T20:25:59.726Z,19.75
2018-06-04T20:28:33.126Z,19.63
2018-06-04T20:31:07.301Z,19.53
2018-06-04T20:33:41.381Z,19.44
2018-06-04T20:36:17.307Z,19.41
2018-06-04T20:38:53.917Z,19.35
2018-06-04T20:41:29.035Z,19.32
2018-06-04T20:44:09.069Z,19.27
2018-06-04T20:46:44.692Z,19.25
2018-06-04T20:49:23.199Z,19.22
2018-06-04T20:52:01.718Z,19.15
2018-06-04T20:54:45.300Z,19.11
2018-06-04T20:57:23.466Z,19.04
2018-06-04T21:00:00.423Z,18.94
2018-06-04T21:02:35.619Z,18.84
2018-06-04T21:05:08.397Z,18.74
2018-06-04T21:07:41.816Z,18.68
2018-06-04T21:10:17.956Z,18.62
2018-06-04T21:12:54.722Z,18.55
2018-06-04T21:15:30.743Z,18.46
2018-06-04T21:18:04.629Z,18.39
2018-06-04T21:20:38.029Z,18.41
2018-06-04T21:23:11.676Z,18.38
2018-06-04T21:25:46.355Z,18.31
2018-06-04T21:28:23.098Z,18.24
2018-06-04T21:30:56.497Z,18.16
2018-06-04T21:33:31.451Z,18.17
2018-06-04T21:36:05.563Z,18.13
2018-06-04T21:38:40.544Z,18.08
2018-06-04T21:41:15.353Z,18.00
2018-06-04T21:43:50.393Z,17.96
2018-06-04T21:46:26.623Z,18.01
2018-06-04T21:49:02.461Z,18.09
2018-06-04T21:51:39.648Z,18.12
2018-06-04T21:54:14.087Z,18.07
2018-06-04T21:56:47.437Z,18.05
2018-06-04T21:59:20.026Z,17.99
2018-06-04T22:01:54.815Z,17.96
2018-06-04T22:04:31.246Z,17.87
2018-06-04T22:07:04.566Z,17.78
2018-06-04T22:09:41.541Z,17.79
2018-06-04T22:12:14.604Z,17.82
2018-06-04T22:14:59.463Z,17.72
2018-06-04T22:17:36.527Z,17.69
2018-06-04T22:20:30.650Z,17.61
2018-06-04T22:23:03.812Z,17.50
2018-06-04T22:25:38.620Z,17.47
2018-06-04T22:28:33.428Z,17.44
2018-06-04T22:31:07.628Z,17.40
2018-06-04T22:33:44.565Z,17.41
2018-06-04T22:36:22.247Z,17.36
2018-06-04T22:38:55.176Z,17.47
2018-06-04T22:41:28.508Z,17.42
2018-06-04T22:44:03.077Z,17.42
2018-06-04T22:46:37.758Z,17.26
2018-06-04T22:49:10.988Z,17.12
2018-06-04T22:51:44.837Z,17.00
2018-06-04T22:54:18.263Z,17.03
2018-06-04T22:56:51.583Z,16.90
2018-06-04T22:59:25.304Z,16.83
2018-06-04T23:01:58.293Z,16.84
2018-06-04T23:04:31.294Z,16.82
2018-06-04T23:07:08.197Z,16.89
2018-06-04T23:09:41.151Z,16.81
2018-06-04T23:12:16.949Z,16.80
2018-06-04T23:14:52.189Z,16.74
2018-06-04T23:17:25.474Z,16.77
2018-06-04T23:20:00.875Z,16.67
2018-06-04T23:22:35.407Z,16.60
2018-06-04T23:25:07.934Z,16.56
2018-06-04T23:27:40.944Z,16.49
2018-06-04T23:30:15.132Z,16.46
2018-06-04T23:32:47.751Z,16.43
2018-06-04T23:35:20.494Z,16.40
2018-06-04T23:37:53.070Z,16.34
2018-06-04T23:40:25.487Z,16.28
2018-06-04T23:42:58.271Z,16.26
2018-06-04T23:45:30.981Z,16.33
2018-06-04T23:48:03.602Z,16.35
2018-06-04T23:50:36.668Z,16.54
2018-06-04T23:53:09.200Z,16.61
2018-06-04T23:55:42.844Z,16.74
2018-06-04T23:58:18.388Z,16.86
